<?xml version="1.0" encoding="UTF-8" standalone="no" ?>
<gpx xmlns="http://www.topografix.com/GPX/1/1" xmlns:xsi="http://www.w3.org/2001/XMLSchema-instance" xsi:schemaLocation="http://www.topografix.com/GPX/1/1 http://www.topografix.com/GPX/1/1/gpx.xsd" version="1.1" creator="VisuGPX - https://www.visugpx.com">
  <metadata>
    <name>Venise-Pamir J36 - Turkie</name>
    <desc><![CDATA[Konya - Nevshehir en bus , puis vélo pour rejoindre Goreme]]></desc>
  </metadata>
  <trk>
    <name><![CDATA[Venise-Pamir J36 - Turkie_1]]></name>
    <trkseg>
      <trkpt lat="37.94796" lon="32.49475">
        <ele>962</ele>
        <time>2018-07-07T05:06:56.000Z</time>
      </trkpt>
      <trkpt lat="37.94809" lon="32.49649">
        <ele>1039.5</ele>
        <time>2018-07-07T05:08:04.000Z</time>
      </trkpt>
      <trkpt lat="37.94804" lon="32.49867">
        <ele>1039.7</ele>
        <time>2018-07-07T05:09:05.000Z</time>
      </trkpt>
      <trkpt lat="37.94804" lon="32.50042">
        <ele>1034.9</ele>
        <time>2018-07-07T05:10:20.000Z</time>
      </trkpt>
      <trkpt lat="37.94815" lon="32.50504">
        <ele>1029.9</ele>
        <time>2018-07-07T05:11:21.000Z</time>
      </trkpt>
      <trkpt lat="37.94834" lon="32.50686">
        <ele>1030.4</ele>
        <time>2018-07-07T05:12:22.000Z</time>
      </trkpt>
      <trkpt lat="37.94959" lon="32.5075">
        <ele>1034.4</ele>
        <time>2018-07-07T05:13:37.000Z</time>
      </trkpt>
      <trkpt lat="37.95041" lon="32.50887">
        <ele>1025.1</ele>
        <time>2018-07-07T05:16:07.000Z</time>
      </trkpt>
      <trkpt lat="38.58969" lon="34.67908">
        <ele>1337.4</ele>
        <time>2018-07-07T09:13:57.000Z</time>
      </trkpt>
      <trkpt lat="38.59106" lon="34.67924">
        <ele>1326</ele>
        <time>2018-07-07T09:20:19.000Z</time>
      </trkpt>
      <trkpt lat="38.59176" lon="34.68083">
        <ele>1320</ele>
        <time>2018-07-07T09:21:20.000Z</time>
      </trkpt>
      <trkpt lat="38.59226" lon="34.68246">
        <ele>1327.7</ele>
        <time>2018-07-07T09:23:06.000Z</time>
      </trkpt>
      <trkpt lat="38.59317" lon="34.68379">
        <ele>1323.1</ele>
        <time>2018-07-07T09:25:23.000Z</time>
      </trkpt>
      <trkpt lat="38.59578" lon="34.68607">
        <ele>1324.9</ele>
        <time>2018-07-07T09:26:24.000Z</time>
      </trkpt>
      <trkpt lat="38.60019" lon="34.69074">
        <ele>1292.7</ele>
        <time>2018-07-07T09:27:25.000Z</time>
      </trkpt>
      <trkpt lat="38.60107" lon="34.69207">
        <ele>1285.4</ele>
        <time>2018-07-07T10:18:08.000Z</time>
      </trkpt>
      <trkpt lat="38.60298" lon="34.69344">
        <ele>1287.2</ele>
        <time>2018-07-07T10:19:09.000Z</time>
      </trkpt>
      <trkpt lat="38.60676" lon="34.6957">
        <ele>1257.6</ele>
        <time>2018-07-07T10:20:10.000Z</time>
      </trkpt>
      <trkpt lat="38.60935" lon="34.69783">
        <ele>1256.4</ele>
        <time>2018-07-07T10:21:11.000Z</time>
      </trkpt>
      <trkpt lat="38.61065" lon="34.70009">
        <ele>1262.8</ele>
        <time>2018-07-07T10:22:12.000Z</time>
      </trkpt>
      <trkpt lat="38.61221" lon="34.70216">
        <ele>1265.9</ele>
        <time>2018-07-07T10:23:12.000Z</time>
      </trkpt>
      <trkpt lat="38.61393" lon="34.70418">
        <ele>1262.3</ele>
        <time>2018-07-07T10:24:13.000Z</time>
      </trkpt>
      <trkpt lat="38.61623" lon="34.7034">
        <ele>1242.8</ele>
        <time>2018-07-07T10:25:14.000Z</time>
      </trkpt>
      <trkpt lat="38.6176" lon="34.7047">
        <ele>1235.6</ele>
        <time>2018-07-07T10:26:15.000Z</time>
      </trkpt>
      <trkpt lat="38.61858" lon="34.70589">
        <ele>1230.4</ele>
        <time>2018-07-07T10:28:39.000Z</time>
      </trkpt>
      <trkpt lat="38.62158" lon="34.70785">
        <ele>1226.5</ele>
        <time>2018-07-07T10:29:40.000Z</time>
      </trkpt>
      <trkpt lat="38.6228" lon="34.7086">
        <ele>1234.7</ele>
        <time>2018-07-07T10:30:43.000Z</time>
      </trkpt>
      <trkpt lat="38.62346" lon="34.71043">
        <ele>1225.2</ele>
        <time>2018-07-07T10:31:44.000Z</time>
      </trkpt>
      <trkpt lat="38.62402" lon="34.71239">
        <ele>1215.6</ele>
        <time>2018-07-07T10:32:45.000Z</time>
      </trkpt>
      <trkpt lat="38.62465" lon="34.71396">
        <ele>1207.3</ele>
        <time>2018-07-07T10:38:38.000Z</time>
      </trkpt>
      <trkpt lat="38.62592" lon="34.71744">
        <ele>1199</ele>
        <time>2018-07-07T10:39:39.000Z</time>
      </trkpt>
      <trkpt lat="38.62674" lon="34.72022">
        <ele>1193.1</ele>
        <time>2018-07-07T10:40:40.000Z</time>
      </trkpt>
      <trkpt lat="38.62735" lon="34.72179">
        <ele>1200.2</ele>
        <time>2018-07-07T10:42:49.000Z</time>
      </trkpt>
      <trkpt lat="38.62795" lon="34.72344">
        <ele>1197.9</ele>
        <time>2018-07-07T10:43:50.000Z</time>
      </trkpt>
      <trkpt lat="38.62899" lon="34.7261">
        <ele>1202.8</ele>
        <time>2018-07-07T10:44:51.000Z</time>
      </trkpt>
      <trkpt lat="38.62953" lon="34.72775">
        <ele>1195.7</ele>
        <time>2018-07-07T10:45:51.000Z</time>
      </trkpt>
      <trkpt lat="38.63061" lon="34.73045">
        <ele>1212.1</ele>
        <time>2018-07-07T10:46:52.000Z</time>
      </trkpt>
      <trkpt lat="38.63049" lon="34.73346">
        <ele>1213.1</ele>
        <time>2018-07-07T10:47:53.000Z</time>
      </trkpt>
      <trkpt lat="38.63041" lon="34.73635">
        <ele>1214.7</ele>
        <time>2018-07-07T10:48:54.000Z</time>
      </trkpt>
      <trkpt lat="38.63087" lon="34.74061">
        <ele>1216.7</ele>
        <time>2018-07-07T10:49:55.000Z</time>
      </trkpt>
      <trkpt lat="38.63129" lon="34.74393">
        <ele>1209.4</ele>
        <time>2018-07-07T10:50:56.000Z</time>
      </trkpt>
      <trkpt lat="38.63174" lon="34.74669">
        <ele>1211.5</ele>
        <time>2018-07-07T10:51:57.000Z</time>
      </trkpt>
      <trkpt lat="38.63196" lon="34.74973">
        <ele>1219.4</ele>
        <time>2018-07-07T10:52:58.000Z</time>
      </trkpt>
      <trkpt lat="38.63168" lon="34.75338">
        <ele>1220.7</ele>
        <time>2018-07-07T10:53:59.000Z</time>
      </trkpt>
      <trkpt lat="38.63131" lon="34.75718">
        <ele>1215.8</ele>
        <time>2018-07-07T10:55:00.000Z</time>
      </trkpt>
      <trkpt lat="38.63102" lon="34.76053">
        <ele>1226.9</ele>
        <time>2018-07-07T10:56:01.000Z</time>
      </trkpt>
      <trkpt lat="38.63055" lon="34.76307">
        <ele>1231</ele>
        <time>2018-07-07T10:57:01.000Z</time>
      </trkpt>
      <trkpt lat="38.62964" lon="34.76525">
        <ele>1236.4</ele>
        <time>2018-07-07T10:58:02.000Z</time>
      </trkpt>
      <trkpt lat="38.62923" lon="34.76692">
        <ele>1241.3</ele>
        <time>2018-07-07T10:59:22.000Z</time>
      </trkpt>
      <trkpt lat="38.62833" lon="34.77046">
        <ele>1247.5</ele>
        <time>2018-07-07T11:00:23.000Z</time>
      </trkpt>
      <trkpt lat="38.62776" lon="34.77322">
        <ele>1247.3</ele>
        <time>2018-07-07T11:01:24.000Z</time>
      </trkpt>
      <trkpt lat="38.62728" lon="34.77548">
        <ele>1256.8</ele>
        <time>2018-07-07T11:02:25.000Z</time>
      </trkpt>
      <trkpt lat="38.6268" lon="34.77745">
        <ele>1264</ele>
        <time>2018-07-07T11:03:26.000Z</time>
      </trkpt>
      <trkpt lat="38.62655" lon="34.77978">
        <ele>1271.7</ele>
        <time>2018-07-07T11:04:27.000Z</time>
      </trkpt>
      <trkpt lat="38.62678" lon="34.78227">
        <ele>1281.4</ele>
        <time>2018-07-07T11:05:28.000Z</time>
      </trkpt>
      <trkpt lat="38.62666" lon="34.78462">
        <ele>1284.2</ele>
        <time>2018-07-07T11:06:29.000Z</time>
      </trkpt>
      <trkpt lat="38.62646" lon="34.78697">
        <ele>1288.2</ele>
        <time>2018-07-07T11:07:30.000Z</time>
      </trkpt>
      <trkpt lat="38.6265" lon="34.7895">
        <ele>1297.8</ele>
        <time>2018-07-07T11:08:31.000Z</time>
      </trkpt>
      <trkpt lat="38.62691" lon="34.79214">
        <ele>1307.7</ele>
        <time>2018-07-07T11:09:32.000Z</time>
      </trkpt>
      <trkpt lat="38.62738" lon="34.7948">
        <ele>1314.1</ele>
        <time>2018-07-07T11:10:33.000Z</time>
      </trkpt>
      <trkpt lat="38.62789" lon="34.79709">
        <ele>1311.3</ele>
        <time>2018-07-07T11:11:34.000Z</time>
      </trkpt>
      <trkpt lat="38.62822" lon="34.79925">
        <ele>1322.3</ele>
        <time>2018-07-07T11:12:35.000Z</time>
      </trkpt>
      <trkpt lat="38.6285" lon="34.80117">
        <ele>1324.9</ele>
        <time>2018-07-07T11:13:36.000Z</time>
      </trkpt>
      <trkpt lat="38.62888" lon="34.80284">
        <ele>1336.4</ele>
        <time>2018-07-07T11:14:51.000Z</time>
      </trkpt>
      <trkpt lat="38.62945" lon="34.80442">
        <ele>1348.7</ele>
        <time>2018-07-07T11:39:18.000Z</time>
      </trkpt>
      <trkpt lat="38.62818" lon="34.80378">
        <ele>1338.7</ele>
        <time>2018-07-07T12:04:01.000Z</time>
      </trkpt>
      <trkpt lat="38.62698" lon="34.80457">
        <ele>1331.4</ele>
        <time>2018-07-07T12:05:22.000Z</time>
      </trkpt>
      <trkpt lat="38.62562" lon="34.80442">
        <ele>1328.8</ele>
        <time>2018-07-07T12:07:59.000Z</time>
      </trkpt>
      <trkpt lat="38.62699" lon="34.80454">
        <ele>1328.9</ele>
        <time>2018-07-07T12:09:03.000Z</time>
      </trkpt>
      <trkpt lat="38.62829" lon="34.80513">
        <ele>1329.3</ele>
        <time>2018-07-07T12:10:04.000Z</time>
      </trkpt>
      <trkpt lat="38.62941" lon="34.80612">
        <ele>1330.1</ele>
        <time>2018-07-07T12:11:37.000Z</time>
      </trkpt>
      <trkpt lat="38.63065" lon="34.80698">
        <ele>1323.4</ele>
        <time>2018-07-07T12:12:38.000Z</time>
      </trkpt>
      <trkpt lat="38.63198" lon="34.80734">
        <ele>1313.8</ele>
        <time>2018-07-07T12:14:01.000Z</time>
      </trkpt>
      <trkpt lat="38.63314" lon="34.80647">
        <ele>1301.3</ele>
        <time>2018-07-07T12:15:02.000Z</time>
      </trkpt>
      <trkpt lat="38.63243" lon="34.80794">
        <ele>1282</ele>
        <time>2018-07-07T12:16:03.000Z</time>
      </trkpt>
      <trkpt lat="38.63299" lon="34.80954">
        <ele>1259</ele>
        <time>2018-07-07T12:19:30.000Z</time>
      </trkpt>
      <trkpt lat="38.63463" lon="34.81082">
        <ele>1248.6</ele>
        <time>2018-07-07T12:20:31.000Z</time>
      </trkpt>
      <trkpt lat="38.63724" lon="34.81351">
        <ele>1231.5</ele>
        <time>2018-07-07T12:21:31.000Z</time>
      </trkpt>
      <trkpt lat="38.63932" lon="34.81552">
        <ele>1206.5</ele>
        <time>2018-07-07T12:22:32.000Z</time>
      </trkpt>
      <trkpt lat="38.64052" lon="34.81638">
        <ele>1196</ele>
        <time>2018-07-07T12:24:41.000Z</time>
      </trkpt>
      <trkpt lat="38.64465" lon="34.81892">
        <ele>1166</ele>
        <time>2018-07-07T12:25:41.000Z</time>
      </trkpt>
      <trkpt lat="38.64685" lon="34.82168">
        <ele>1151.4</ele>
        <time>2018-07-07T12:26:42.000Z</time>
      </trkpt>
      <trkpt lat="38.64687" lon="34.82343">
        <ele>1146.5</ele>
        <time>2018-07-07T12:28:43.000Z</time>
      </trkpt>
      <trkpt lat="38.64462" lon="34.82851">
        <ele>1106</ele>
        <time>2018-07-07T12:29:44.000Z</time>
      </trkpt>
      <trkpt lat="38.64299" lon="34.82921">
        <ele>1101.7</ele>
        <time>2018-07-07T12:30:44.000Z</time>
      </trkpt>
      <trkpt lat="38.64278" lon="34.83096">
        <ele>1102.6</ele>
        <time>2018-07-07T12:44:22.000Z</time>
      </trkpt>
      <trkpt lat="38.64207" lon="34.83245">
        <ele>1123.7</ele>
        <time>2018-07-07T12:55:24.000Z</time>
      </trkpt>
    </trkseg>
  </trk>
</gpx>